createdAt,value
2022-09-12T00:01:27.586Z,100.00
2022-09-12T00:03:58.240Z,100.00
2022-09-12T00:06:30.158Z,100.00
2022-09-12T00:09:01.854Z,100.00
2022-09-12T00:11:31.638Z,100.00
2022-09-12T00:14:02.550Z,100.00
2022-09-12T00:16:35.380Z,100.00
2022-09-12T00:19:05.553Z,100.00
2022-09-12T00:21:35.911Z,100.00
2022-09-12T00:24:04.772Z,100.00
2022-09-12T00:26:34.874Z,100.00
2022-09-12T00:29:03.276Z,100.00
2022-09-12T00:31:31.650Z,100.00
2022-09-12T00:34:01.665Z,100.00
2022-09-12T00:36:31.300Z,100.00
2022-09-12T00:39:00.375Z,100.00
2022-09-12T00:41:31.362Z,100.00
2022-09-12T00:44:03.028Z,100.00
2022-09-12T00:46:39.079Z,100.00
2022-09-12T00:49:14.513Z,100.00
2022-09-12T00:51:46.871Z,100.00
2022-09-12T00:54:22.182Z,100.00
2022-09-12T00:56:54.368Z,100.00
2022-09-12T00:59:30.449Z,100.00
2022-09-12T01:01:59.007Z,100.00
2022-09-12T01:04:29.594Z,100.00
2022-09-12T01:06:59.541Z,100.00
2022-09-12T01:09:27.983Z,100.00
2022-09-12T01:11:56.949Z,100.00
2022-09-12T01:14:26.845Z,100.00
2022-09-12T01:16:55.182Z,100.00
2022-09-12T01:20:07.947Z,100.00
2022-09-12T01:23:04.912Z,100.00
2022-09-12T01:25:39.667Z,100.00
2022-09-12T01:28:30.406Z,100.00
2022-09-12T01:31:07.893Z,100.00
2022-09-12T01:33:54.943Z,100.00
2022-09-12T01:36:42.529Z,100.00
2022-09-12T01:39:21.986Z,100.00
2022-09-12T01:41:57.300Z,100.00
2022-09-12T01:44:37.856Z,100.00
2022-09-12T01:47:13.132Z,100.00
2022-09-12T01:49:52.094Z,100.00
2022-09-12T01:52:29.059Z,100.00
2022-09-12T01:55:08.982Z,100.00
2022-09-12T01:57:44.362Z,100.00
2022-09-12T02:00:14.388Z,100.00
2022-09-12T02:02:50.686Z,100.00
2022-09-12T02:05:23.372Z,100.00
2022-09-12T02:07:56.993Z,100.00
2022-09-12T02:10:32.666Z,100.00
2022-09-12T02:13:08.295Z,100.00
2022-09-12T02:15:39.419Z,100.00
2022-09-12T02:18:14.130Z,100.00
2022-09-12T02:20:48.253Z,100.00
2022-09-12T02:23:24.395Z,100.00
2022-09-12T02:25:57.611Z,100.00
2022-09-12T02:28:30.589Z,100.00
2022-09-12T02:31:09.718Z,100.00
2022-09-12T02:33:49.261Z,100.00
2022-09-12T02:36:29.688Z,100.00
2022-09-12T02:38:58.259Z,100.00
2022-09-12T02:41:27.242Z,100.00
2022-09-12T02:43:55.874Z,100.00
2022-09-12T02:46:28.208Z,100.00
2022-09-12T02:48:58.774Z,100.00
2022-09-12T02:51:28.326Z,100.00
2022-09-12T02:53:58.115Z,100.00
2022-09-12T02:56:29.411Z,100.00
2022-09-12T02:59:02.329Z,100.00
2022-09-12T03:01:50.287Z,100.00
2022-09-12T03:04:47.111Z,100.00
2022-09-12T03:07:24.323Z,100.00
2022-09-12T03:10:04.915Z,100.00
2022-09-12T03:12:48.210Z,100.00
2022-09-12T03:15:29.695Z,100.00
2022-09-12T03:18:13.118Z,100.00
2022-09-12T03:20:51.743Z,100.00
2022-09-12T03:23:27.281Z,100.00
2022-09-12T03:26:02.263Z,100.00
2022-09-12T03:28:32.231Z,100.00
2022-09-12T03:31:00.912Z,100.00
2022-09-12T03:33:29.563Z,100.00
2022-09-12T03:35:59.507Z,100.00
2022-09-12T03:38:28.034Z,100.00
2022-09-12T03:40:56.575Z,100.00
2022-09-12T03:43:25.095Z,100.00
2022-09-12T03:45:53.903Z,100.00
2022-09-12T03:48:22.518Z,100.00
2022-09-12T03:50:51.059Z,100.00
2022-09-12T03:53:20.964Z,100.00
2022-09-12T03:55:49.509Z,100.00
2022-09-12T03:58:18.071Z,100.00
2022-09-12T04:00:46.783Z,100.00
2022-09-12T04:03:15.351Z,100.00
2022-09-12T04:05:43.878Z,100.00
2022-09-12T04:08:12.588Z,100.00
2022-09-12T04:10:42.856Z,100.00
2022-09-12T04:13:11.418Z,100.00
2022-09-12T04:15:39.947Z,100.00
2022-09-12T04:18:08.490Z,100.00
2022-09-12T04:20:38.270Z,100.00
2022-09-12T04:23:06.836Z,100.00
2022-09-12T04:25:35.358Z,100.00
2022-09-12T04:28:05.473Z,100.00
2022-09-12T04:30:36.188Z,100.00
2022-09-12T04:33:08.028Z,100.00
2022-09-12T04:35:37.272Z,100.00
2022-09-12T04:38:05.825Z,100.00
2022-09-12T04:40:34.906Z,100.00
2022-09-12T04:43:04.949Z,100.00
2022-09-12T04:45:33.710Z,100.00
2022-09-12T04:48:02.488Z,100.00
2022-09-12T04:50:31.051Z,100.00
2022-09-12T04:52:59.588Z,100.00
2022-09-12T04:55:28.446Z,100.00
2022-09-12T04:57:57.051Z,100.00
2022-09-12T05:00:26.919Z,100.00
2022-09-12T05:02:55.459Z,100.00
2022-09-12T05:05:23.974Z,100.00
2022-09-12T05:07:52.518Z,100.00
2022-09-12T05:10:23.782Z,100.00
2022-09-12T05:12:52.687Z,100.00
2022-09-12T05:15:21.195Z,100.00
2022-09-12T05:17:51.167Z,100.00
2022-09-12T05:20:19.724Z,100.00
2022-09-12T05:22:48.276Z,100.00
2022-09-12T05:25:17.157Z,100.00
2022-09-12T05:27:50.360Z,100.00
2022-09-12T05:30:19.151Z,100.00
2022-09-12T05:32:47.691Z,100.00
2022-09-12T05:35:18.476Z,100.00
2022-09-12T05:37:47.012Z,100.00
2022-09-12T05:40:17.844Z,100.00
2022-09-12T05:42:46.507Z,100.00
2022-09-12T05:45:15.163Z,100.00
2022-09-12T05:47:44.539Z,100.00
2022-09-12T05:50:13.082Z,100.00
2022-09-12T05:52:43.155Z,100.00
2022-09-12T05:55:11.907Z,100.00
2022-09-12T05:57:40.573Z,100.00
2022-09-12T06:00:10.605Z,100.00
2022-09-12T06:02:39.479Z,100.00
2022-09-12T06:05:08.546Z,100.00
2022-09-12T06:07:37.188Z,100.00
2022-09-12T06:10:07.830Z,100.00
2022-09-12T06:12:36.382Z,100.00
2022-09-12T06:15:05.317Z,100.00
2022-09-12T06:17:33.927Z,100.00
2022-09-12T06:20:04.090Z,100.00
2022-09-12T06:22:32.754Z,100.00
2022-09-12T06:25:01.267Z,100.00
2022-09-12T06:27:31.225Z,100.00
2022-09-12T06:29:59.790Z,100.00
2022-09-12T06:32:30.978Z,100.00
2022-09-12T06:34:59.486Z,100.00
2022-09-12T06:37:28.512Z,100.00
2022-09-12T06:39:57.272Z,100.00
2022-09-12T06:42:25.887Z,100.00
2022-09-12T06:44:55.782Z,100.00
2022-09-12T06:47:24.660Z,100.00
2022-09-12T06:49:53.184Z,100.00
2022-09-12T06:52:21.723Z,100.00
2022-09-12T06:54:50.223Z,100.00
2022-09-12T06:57:19.001Z,100.00
2022-09-12T06:59:47.521Z,100.00
2022-09-12T07:02:17.528Z,100.00
2022-09-12T07:04:46.071Z,100.00
2022-09-12T07:07:14.712Z,100.00
2022-09-12T07:09:43.254Z,100.00
2022-09-12T07:12:11.496Z,100.00
2022-09-12T07:14:39.812Z,100.00
2022-09-12T07:17:08.655Z,100.00
2022-09-12T07:19:38.314Z,100.00
2022-09-12T07:22:06.661Z,100.00
2022-09-12T07:24:34.907Z,100.00
2022-09-12T07:27:03.148Z,100.00
2022-09-12T07:29:38.521Z,100.00
2022-09-12T07:32:08.076Z,100.00
2022-09-12T07:34:38.027Z,100.00
2022-09-12T07:37:06.376Z,100.00
2022-09-12T07:39:34.605Z,100.00
2022-09-12T07:42:02.883Z,100.00
2022-09-12T07:44:31.145Z,100.00
2022-09-12T07:46:59.664Z,100.00
2022-09-12T07:49:28.321Z,100.00
2022-09-12T07:51:58.355Z,100.00
2022-09-12T07:54:26.885Z,100.00
2022-09-12T07:56:55.732Z,100.00
2022-09-12T07:59:41.778Z,100.00
2022-09-12T08:02:17.109Z,100.00
2022-09-12T08:04:46.605Z,100.00
2022-09-12T08:07:18.337Z,100.00
2022-09-12T08:09:47.583Z,100.00
2022-09-12T08:12:17.787Z,100.00
2022-09-12T08:14:46.332Z,100.00
2022-09-12T08:17:15.367Z,100.00
2022-09-12T08:19:44.936Z,100.00
2022-09-12T08:22:15.443Z,100.00
2022-09-12T08:24:44.549Z,100.00
2022-09-12T08:27:13.078Z,100.00
2022-09-12T08:29:41.628Z,100.00
2022-09-12T08:32:10.648Z,100.00
2022-09-12T08:34:39.200Z,100.00
2022-09-12T08:37:07.729Z,100.00
2022-09-12T08:39:37.696Z,100.00
2022-09-12T08:42:07.509Z,100.00
2022-09-12T08:45:06.303Z,100.00
2022-09-12T08:47:37.961Z,100.00
2022-09-12T08:50:15.421Z,100.00
2022-09-12T08:52:53.000Z,100.00
2022-09-12T08:55:32.303Z,100.00
2022-09-12T08:58:01.873Z,100.00
2022-09-12T09:00:40.588Z,100.00
2022-09-12T09:03:45.113Z,100.00
2022-09-12T09:06:24.910Z,100.00
2022-09-12T09:09:02.962Z,100.00
2022-09-12T09:11:48.475Z,100.00
2022-09-12T09:14:50.802Z,100.00
2022-09-12T09:17:27.660Z,100.00
2022-09-12T09:20:04.961Z,100.00
2022-09-12T09:22:42.483Z,100.00
2022-09-12T09:25:22.853Z,100.00
2022-09-12T09:27:59.621Z,100.00
2022-09-12T09:30:28.679Z,100.00
2022-09-12T09:33:00.902Z,100.00
2022-09-12T09:35:39.561Z,100.00
2022-09-12T09:38:23.188Z,100.00
2022-09-12T09:41:11.840Z,100.00
2022-09-12T09:43:42.450Z,100.00
2022-09-12T09:46:11.950Z,100.00
2022-09-12T09:48:45.785Z,100.00
2022-09-12T09:51:18.086Z,100.00
2022-09-12T09:53:50.339Z,100.00
2022-09-12T09:56:29.221Z,100.00
2022-09-12T09:59:09.222Z,100.00
2022-09-12T10:01:38.941Z,100.00
2022-09-12T10:04:20.913Z,100.00
2022-09-12T10:06:51.943Z,100.00
2022-09-12T10:09:23.792Z,100.00
2022-09-12T10:11:54.105Z,100.00
2022-09-12T10:14:37.082Z,100.00
2022-09-12T10:17:25.849Z,98.29
2022-09-12T10:20:17.397Z,98.41
2022-09-12T10:22:49.608Z,100.00
2022-09-12T10:25:19.780Z,100.00
2022-09-12T10:27:55.179Z,98.47
2022-09-12T10:30:28.390Z,95.20
2022-09-12T10:33:06.872Z,95.86
2022-09-12T10:35:47.084Z,96.97
2022-09-12T10:38:24.800Z,95.75
2022-09-12T10:41:01.279Z,94.59
2022-09-12T10:43:35.547Z,95.75
2022-09-12T10:46:24.306Z,96.29
2022-09-12T10:49:13.389Z,93.25
2022-09-12T10:51:41.918Z,96.97
2022-09-12T10:54:13.573Z,97.79
2022-09-12T10:56:52.889Z,99.37
2022-09-12T10:59:34.362Z,95.12
2022-09-12T11:02:15.903Z,95.64
2022-09-12T11:04:56.696Z,97.45
2022-09-12T11:07:40.355Z,91.07
2022-09-12T11:10:23.562Z,90.38
2022-09-12T11:13:01.083Z,94.43
2022-09-12T11:15:46.715Z,90.88
2022-09-12T11:18:31.682Z,98.37
2022-09-12T11:21:16.308Z,95.00
2022-09-12T11:24:28.722Z,88.51
2022-09-12T11:27:10.249Z,92.31
2022-09-12T11:29:50.364Z,100.00
2022-09-12T11:32:53.703Z,93.46
2022-09-12T11:35:27.613Z,90.36
2022-09-12T11:38:31.940Z,90.46
2022-09-12T11:41:05.004Z,87.96
2022-09-12T11:43:39.871Z,89.42
2022-09-12T11:46:20.797Z,90.30
2022-09-12T11:48:56.479Z,87.87
2022-09-12T11:51:30.805Z,90.07
2022-09-12T11:54:10.453Z,86.13
2022-09-12T11:56:44.135Z,91.22
2022-09-12T11:59:22.081Z,88.11
2022-09-12T12:01:59.202Z,94.75
2022-09-12T12:04:37.663Z,90.62
2022-09-12T12:07:10.656Z,89.74
2022-09-12T12:09:48.901Z,79.98
2022-09-12T12:12:22.065Z,81.64
2022-09-12T12:14:54.997Z,80.52
2022-09-12T12:17:25.652Z,75.18
2022-09-12T12:20:06.520Z,69.98
2022-09-12T12:22:38.435Z,71.10
2022-09-12T12:25:29.482Z,76.85
2022-09-12T12:28:01.776Z,73.46
2022-09-12T12:31:03.663Z,66.40
2022-09-12T12:34:01.453Z,66.83
2022-09-12T12:36:42.340Z,64.63
2022-09-12T12:39:49.297Z,66.36
2022-09-12T12:43:05.298Z,74.02
2022-09-12T12:46:13.063Z,65.66
2022-09-12T12:49:10.557Z,68.56
2022-09-12T12:51:50.768Z,60.49
2022-09-12T12:54:33.319Z,63.14
2022-09-12T12:57:41.741Z,61.93
2022-09-12T13:00:32.158Z,57.72
2022-09-12T13:03:07.531Z,58.31
2022-09-12T13:05:43.789Z,60.27
2022-09-12T13:08:28.688Z,64.35
2022-09-12T13:11:00.894Z,60.10
2022-09-12T13:13:34.218Z,58.26
2022-09-12T13:16:02.957Z,58.90
2022-09-12T13:18:43.780Z,68.31
2022-09-12T13:21:17.450Z,60.91
2022-09-12T13:24:00.618Z,58.68
2022-09-12T13:26:29.258Z,59.60
2022-09-12T13:29:16.419Z,60.32
2022-09-12T13:31:47.331Z,60.17
2022-09-12T13:34:22.131Z,59.21
2022-09-12T13:37:21.252Z,69.35
2022-09-12T13:39:51.457Z,61.45
2022-09-12T13:42:48.933Z,58.82
2022-09-12T13:45:21.868Z,60.35
2022-09-12T13:47:57.986Z,65.17
2022-09-12T13:50:31.882Z,57.65
2022-09-12T13:53:06.834Z,60.48
2022-09-12T13:55:39.219Z,59.68
2022-09-12T13:58:23.059Z,65.59
2022-09-12T14:01:09.260Z,53.74
2022-09-12T14:04:00.660Z,59.99
2022-09-12T14:06:29.484Z,65.68
2022-09-12T14:09:01.385Z,54.89
2022-09-12T14:11:33.873Z,54.42
2022-09-12T14:14:07.576Z,62.69
2022-09-12T14:16:41.251Z,61.41
2022-09-12T14:19:12.214Z,53.55
2022-09-12T14:21:40.672Z,55.25
2022-09-12T14:24:13.180Z,61.10
2022-09-12T14:26:43.748Z,56.62
2022-09-12T14:29:17.741Z,54.71
2022-09-12T14:31:46.277Z,57.58
2022-09-12T14:34:17.542Z,54.06
2022-09-12T14:36:49.067Z,53.46
2022-09-12T14:39:25.522Z,52.43
2022-09-12T14:42:04.896Z,61.24
2022-09-12T14:44:35.089Z,53.06
2022-09-12T14:47:20.570Z,53.47
2022-09-12T14:49:51.662Z,54.97
2022-09-12T14:52:29.608Z,55.59
2022-09-12T14:55:02.139Z,52.55
2022-09-12T14:57:36.471Z,56.15
2022-09-12T15:00:26.334Z,52.29
2022-09-12T15:02:54.699Z,58.23
2022-09-12T15:05:28.097Z,56.08
2022-09-12T15:08:00.975Z,55.33
2022-09-12T15:10:35.006Z,56.68
2022-09-12T15:13:19.337Z,57.92
2022-09-12T15:15:51.186Z,57.64
2022-09-12T15:18:20.683Z,54.82
2022-09-12T15:20:52.841Z,55.82
2022-09-12T15:23:38.192Z,51.92
2022-09-12T15:26:11.251Z,59.17
2022-09-12T15:28:39.478Z,54.10
2022-09-12T15:31:16.437Z,52.36
2022-09-12T15:33:44.765Z,51.81
2022-09-12T15:36:17.707Z,55.17
2022-09-12T15:38:46.834Z,53.52
2022-09-12T15:41:19.127Z,52.54
2022-09-12T15:43:47.939Z,55.84
2022-09-12T15:46:18.984Z,58.95
2022-09-12T15:48:47.447Z,54.70
2022-09-12T15:51:18.484Z,54.44
2022-09-12T15:53:48.380Z,60.50
2022-09-12T15:56:19.873Z,54.79
2022-09-12T15:58:59.614Z,55.07
2022-09-12T16:01:29.653Z,62.37
2022-09-12T16:03:58.533Z,58.22
2022-09-12T16:06:27.896Z,56.58
2022-09-12T16:08:56.249Z,62.82
2022-09-12T16:11:28.384Z,56.79
2022-09-12T16:13:57.983Z,64.71
2022-09-12T16:16:26.381Z,54.85
2022-09-12T16:18:54.662Z,65.65
2022-09-12T16:21:22.995Z,55.65
2022-09-12T16:23:51.259Z,55.96
2022-09-12T16:26:19.562Z,61.08
2022-09-12T16:28:49.424Z,62.38
2022-09-12T16:31:17.822Z,58.24
2022-09-12T16:33:46.122Z,54.71
2022-09-12T16:36:17.024Z,62.58
2022-09-12T16:38:47.340Z,55.51
2022-09-12T16:41:17.316Z,61.81
2022-09-12T16:43:46.911Z,57.29
2022-09-12T16:46:19.545Z,61.54
2022-09-12T16:48:52.428Z,57.49
2022-09-12T16:51:23.651Z,56.66
2022-09-12T16:53:52.856Z,56.26
2022-09-12T16:56:21.188Z,57.03
2022-09-12T16:58:49.635Z,56.55
2022-09-12T17:01:21.612Z,61.86
2022-09-12T17:03:53.140Z,58.60
2022-09-12T17:06:21.995Z,57.98
2022-09-12T17:08:53.548Z,66.02
2022-09-12T17:11:24.190Z,57.79
2022-09-12T17:14:10.202Z,58.32
2022-09-12T17:16:42.955Z,64.61
2022-09-12T17:19:17.224Z,65.52
2022-09-12T17:21:47.187Z,67.56
2022-09-12T17:24:16.060Z,67.85
2022-09-12T17:26:44.825Z,63.43
2022-09-12T17:29:14.228Z,60.49
2022-09-12T17:31:45.130Z,64.92
2022-09-12T17:34:16.237Z,67.64
2022-09-12T17:36:45.622Z,67.92
2022-09-12T17:39:15.348Z,68.21
2022-09-12T17:41:45.778Z,68.08
2022-09-12T17:44:16.007Z,68.00
2022-09-12T17:46:45.735Z,67.89
2022-09-12T17:49:17.338Z,67.92
2022-09-12T17:51:46.257Z,68.04
2022-09-12T17:54:16.747Z,67.20
2022-09-12T17:56:49.749Z,70.06
2022-09-12T17:59:21.447Z,69.99
2022-09-12T18:02:08.803Z,69.40
2022-09-12T18:04:37.472Z,67.08
2022-09-12T18:07:06.033Z,70.04
2022-09-12T18:09:34.328Z,71.44
2022-09-12T18:12:02.990Z,71.50
2022-09-12T18:14:31.546Z,71.00
2022-09-12T18:17:01.254Z,70.82
2022-09-12T18:19:29.922Z,70.84
2022-09-12T18:21:58.500Z,70.83
2022-09-12T18:24:26.940Z,69.89
2022-09-12T18:26:56.759Z,72.67
2022-09-12T18:29:25.390Z,74.82
2022-09-12T18:31:53.664Z,74.34
2022-09-12T18:34:23.411Z,73.79
2022-09-12T18:36:54.338Z,73.48
2022-09-12T18:39:26.828Z,73.22
2022-09-12T18:41:55.849Z,72.82
2022-09-12T18:44:24.233Z,73.07
2022-09-12T18:46:52.863Z,73.17
2022-09-12T18:49:22.575Z,72.67
2022-09-12T18:51:50.852Z,73.45
2022-09-12T18:54:19.380Z,73.49
2022-09-12T18:56:47.787Z,73.78
2022-09-12T18:59:16.629Z,74.28
2022-09-12T19:01:45.403Z,74.42
2022-09-12T19:04:16.546Z,72.50
2022-09-12T19:06:48.830Z,78.06
2022-09-12T19:09:20.992Z,78.29
2022-09-12T19:11:50.141Z,74.62
2022-09-12T19:14:20.178Z,76.13
2022-09-12T19:16:48.500Z,75.40
2022-09-12T19:19:16.753Z,77.04
2022-09-12T19:21:47.113Z,76.11
2022-09-12T19:24:17.036Z,75.35
2022-09-12T19:26:46.239Z,75.32
2022-09-12T19:29:16.570Z,75.24
2022-09-12T19:31:45.675Z,75.52
2022-09-12T19:34:15.102Z,76.51
2022-09-12T19:36:46.276Z,76.67
2022-09-12T19:39:19.444Z,76.19
2022-09-12T19:41:47.960Z,76.11
2022-09-12T19:44:19.170Z,76.16
2022-09-12T19:46:47.615Z,76.09
2022-09-12T19:49:15.948Z,76.36
2022-09-12T19:51:44.454Z,76.16
2022-09-12T19:54:13.093Z,76.23
2022-09-12T19:56:42.749Z,76.18
2022-09-12T19:59:11.213Z,76.10
2022-09-12T20:01:39.566Z,76.66
2022-09-12T20:04:07.988Z,76.90
2022-09-12T20:06:36.850Z,77.35
2022-09-12T20:09:05.412Z,77.40
2022-09-12T20:11:33.841Z,77.49
2022-09-12T20:14:03.810Z,77.86
2022-09-12T20:16:33.541Z,78.19
2022-09-12T20:19:06.099Z,78.02
2022-09-12T20:21:36.046Z,77.95
2022-09-12T20:24:07.539Z,77.64
2022-09-12T20:26:36.754Z,77.64
2022-09-12T20:29:07.586Z,77.31
2022-09-12T20:31:37.134Z,77.04
2022-09-12T20:34:06.469Z,76.98
2022-09-12T20:36:35.391Z,77.07
2022-09-12T20:39:04.060Z,77.67
2022-09-12T20:41:35.353Z,77.49
2022-09-12T20:44:05.186Z,76.99
2022-09-12T20:46:33.587Z,78.63
2022-09-12T20:49:01.899Z,77.56
2022-09-12T20:51:30.487Z,80.30
2022-09-12T20:54:00.773Z,79.88
2022-09-12T20:56:31.747Z,80.73
2022-09-12T20:59:00.401Z,79.33
2022-09-12T21:01:31.458Z,87.17
2022-09-12T21:04:01.087Z,77.87
2022-09-12T21:06:29.815Z,79.18
2022-09-12T21:09:00.668Z,83.88
2022-09-12T21:11:29.706Z,86.12
2022-09-12T21:13:58.485Z,79.41
2022-09-12T21:16:27.157Z,77.07
2022-09-12T21:18:59.467Z,81.79
2022-09-12T21:21:28.296Z,84.36
2022-09-12T21:24:00.548Z,76.80
2022-09-12T21:26:28.833Z,81.83
2022-09-12T21:28:57.477Z,81.84
2022-09-12T21:31:26.547Z,80.33
2022-09-12T21:33:56.300Z,81.08
2022-09-12T21:36:26.078Z,78.62
2022-09-12T21:38:54.339Z,80.35
2022-09-12T21:41:22.631Z,79.00
2022-09-12T21:43:51.333Z,75.81
2022-09-12T21:46:20.014Z,78.99
2022-09-12T21:48:48.284Z,79.38
2022-09-12T21:51:18.186Z,76.37
2022-09-12T21:53:46.440Z,77.66
2022-09-12T21:56:14.730Z,76.91
2022-09-12T21:58:42.953Z,78.54
2022-09-12T22:01:13.382Z,75.68
2022-09-12T22:03:44.820Z,76.34
2022-09-12T22:06:14.234Z,78.73
2022-09-12T22:08:43.902Z,75.07
2022-09-12T22:11:12.908Z,77.24
2022-09-12T22:13:43.337Z,86.99
2022-09-12T22:16:12.361Z,79.54
2022-09-12T22:18:40.723Z,81.52
2022-09-12T22:21:13.026Z,79.56
2022-09-12T22:23:59.248Z,74.91
2022-09-12T22:26:29.303Z,81.66
2022-09-12T22:28:57.709Z,82.84
2022-09-12T22:31:27.050Z,78.10
2022-09-12T22:33:57.359Z,86.60
2022-09-12T22:36:30.447Z,84.20
2022-09-12T22:38:59.792Z,83.63
2022-09-12T22:41:29.544Z,84.99
2022-09-12T22:43:58.525Z,84.40
2022-09-12T22:46:27.592Z,87.29
2022-09-12T22:48:56.662Z,85.83
2022-09-12T22:51:25.252Z,80.00
2022-09-12T22:53:53.763Z,83.55
2022-09-12T22:56:22.570Z,82.04
2022-09-12T22:58:52.259Z,86.25
2022-09-12T23:01:20.664Z,82.73
2022-09-12T23:03:49.003Z,81.60
2022-09-12T23:06:17.618Z,81.45
2022-09-12T23:08:46.056Z,79.29
2022-09-12T23:11:17.020Z,78.54
2022-09-12T23:13:47.612Z,77.87
2022-09-12T23:16:20.106Z,76.13
2022-09-12T23:18:49.494Z,78.29
2022-09-12T23:21:20.733Z,83.65
2022-09-12T23:23:49.421Z,80.35
2022-09-12T23:26:21.449Z,76.71
2022-09-12T23:28:52.826Z,78.99
2022-09-12T23:31:23.952Z,82.90
2022-09-12T23:33:55.753Z,76.98
2022-09-12T23:36:25.506Z,82.67
2022-09-12T23:38:54.896Z,79.89
2022-09-12T23:41:23.750Z,91.91
2022-09-12T23:43:52.502Z,84.70
2022-09-12T23:46:22.557Z,82.60
2022-09-12T23:48:53.206Z,80.53
2022-09-12T23:51:22.789Z,90.47
2022-09-12T23:53:51.070Z,86.08
2022-09-12T23:56:19.347Z,82.04
2022-09-12T23:58:47.948Z,81.57
